Time;durP1;ratioP1;P1;durP2;ratioP2;P2;SDS_P1;SDS_P2;PMS_P1;PMS_P2;Temp;Humidity;BMP_temperature;BMP_pressure;BME280_temperature;BME280_humidity;BME280_pressure;Samples;Min_cycle;Max_cycle;Signal;HPM_P1;HPM_P2
2023/09/24 00:01:16;;;;;;;1999.90;999.90;;;12.80;99.90;;;;;;5044626;28;20643;-68
2023/09/24 00:03:42;;;;;;;1999.90;999.90;;;;;;;;;;5043167;28;20435;-68
2023/09/24 00:06:09;;;;;;;1999.90;999.90;;;12.70;99.90;;;;;;5043742;28;20426;-68
2023/09/24 00:08:36;;;;;;;1999.90;999.90;;;12.00;99.90;;;;;;5045108;28;20411;-68
2023/09/24 00:11:02;;;;;;;1999.90;999.90;;;12.80;99.90;;;;;;5044266;28;20464;-68
2023/09/24 00:13:29;;;;;;;1999.90;999.90;;;12.60;99.90;;;;;;5045150;28;20441;-68
2023/09/24 00:16:06;;;;;;;1999.90;999.90;;;12.60;99.90;;;;;;5043374;28;20446;-67
2023/09/24 00:18:38;;;;;;;1999.90;999.90;;;12.60;99.90;;;;;;5027096;28;20921;-68
2023/09/24 00:21:06;;;;;;;1999.90;999.90;;;12.60;99.90;;;;;;5043358;28;20418;-68
2023/09/24 00:23:32;;;;;;;1999.90;999.90;;;12.60;99.90;;;;;;5043606;28;20427;-67
2023/09/24 00:25:58;;;;;;;1999.90;999.90;;;12.70;99.90;;;;;;5043561;28;20418;-68
2023/09/24 00:28:24;;;;;;;1999.90;999.90;;;12.60;99.90;;;;;;5043292;28;20476;-67
2023/09/24 00:30:52;;;;;;;1999.90;999.90;;;12.90;99.90;;;;;;5045448;28;20166;-68
2023/09/24 00:33:18;;;;;;;1999.90;999.90;;;12.60;99.90;;;;;;5044627;28;20463;-67
2023/09/24 00:35:44;;;;;;;1999.90;999.90;;;12.60;99.90;;;;;;5044120;28;20436;-68
2023/09/24 00:38:10;;;;;;;1999.90;999.90;;;12.50;99.90;;;;;;5044170;28;20413;-67
2023/09/24 00:40:35;;;;;;;1999.90;999.90;;;12.50;99.90;;;;;;5043262;28;20411;-67
2023/09/24 00:43:01;;;;;;;1999.90;999.90;;;12.40;99.90;;;;;;5043142;28;20185;-68
2023/09/24 00:45:28;;;;;;;1999.90;999.90;;;12.40;99.90;;;;;;5043359;28;20185;-69
2023/09/24 00:47:56;;;;;;;1999.90;999.90;;;12.40;99.90;;;;;;5043349;28;20414;-68
2023/09/24 00:50:27;;;;;;;1999.90;999.90;;;12.40;99.90;;;;;;5044527;28;20461;-68
2023/09/24 00:52:54;;;;;;;1999.90;999.90;;;12.50;99.90;;;;;;5044260;28;20462;-68
2023/09/24 00:55:20;;;;;;;1999.90;999.90;;;12.50;99.90;;;;;;5047262;28;20411;-67
2023/09/24 00:57:49;;;;;;;1999.90;999.90;;;12.40;99.90;;;;;;5049355;28;20415;-68
2023/09/24 01:00:19;;;;;;;1999.90;999.90;;;12.20;99.90;;;;;;5046689;28;20416;-69
2023/09/24 01:02:49;;;;;;;1999.90;999.90;;;12.10;99.90;;;;;;5047158;28;20832;-68
2023/09/24 01:05:15;;;;;;;1999.90;999.90;;;12.00;99.90;;;;;;5047430;28;20407;-69
2023/09/24 01:07:42;;;;;;;1999.90;999.90;;;12.00;99.90;;;;;;5049025;28;20439;-68
2023/09/24 01:10:09;;;;;;;1999.90;999.90;;;11.90;99.90;;;;;;5047756;28;20180;-69
2023/09/24 01:12:37;;;;;;;1999.90;999.90;;;11.90;99.90;;;;;;5048562;28;20467;-68
2023/09/24 01:15:05;;;;;;;1999.90;999.90;;;11.90;99.90;;;;;;5047556;28;20422;-68
2023/09/24 01:17:31;;;;;;;1999.90;999.90;;;11.90;99.90;;;;;;5048491;28;20765;-67
2023/09/24 01:19:57;;;;;;;1999.90;999.90;;;11.90;99.90;;;;;;5047947;28;20432;-68
2023/09/24 01:22:23;;;;;;;1999.90;999.90;;;11.90;99.90;;;;;;5048682;28;21269;-67
2023/09/24 01:24:49;;;;;;;1999.90;999.90;;;11.90;99.90;;;;;;5048191;28;20174;-68
2023/09/24 01:27:14;;;;;;;1999.90;999.90;;;11.80;99.90;;;;;;5048685;28;20411;-67
2023/09/24 01:29:40;;;;;;;1999.90;999.90;;;12.00;99.90;;;;;;5048479;28;20169;-67
2023/09/24 01:32:06;;;;;;;1999.90;999.90;;;11.80;99.90;;;;;;5047474;28;20300;-66
2023/09/24 01:34:34;;;;;;;1999.90;999.90;;;11.70;99.90;;;;;;5048308;28;20164;-67
2023/09/24 01:37:07;;;;;;;1999.90;999.90;;;11.70;99.90;;;;;;5048692;28;20479;-68
2023/09/24 01:39:33;;;;;;;1999.90;999.90;;;11.60;99.90;;;;;;5050008;28;20430;-68
2023/09/24 01:42:00;;;;;;;1999.90;999.90;;;11.60;99.90;;;;;;5049993;28;20407;-67
2023/09/24 01:44:26;;;;;;;1999.90;999.90;;;;;;;;;;5049430;28;20192;-67
2023/09/24 01:46:52;;;;;;;1999.90;999.90;;;11.40;99.90;;;;;;5049287;28;20907;-68
2023/09/24 01:49:17;;;;;;;1999.90;999.90;;;11.30;99.90;;;;;;5048669;28;20419;-67
2023/09/24 01:51:46;;;;;;;1999.90;999.90;;;11.20;99.90;;;;;;5047077;28;20207;-67
2023/09/24 01:54:12;;;;;;;1999.90;999.90;;;11.10;99.90;;;;;;5048327;28;20170;-68
2023/09/24 01:56:38;;;;;;;1999.90;999.90;;;11.20;99.90;;;;;;5048579;28;20399;-68
2023/09/24 01:59:05;;;;;;;1999.90;999.90;;;11.10;99.90;;;;;;5049067;28;20793;-68
2023/09/24 02:01:31;;;;;;;1999.90;999.90;;;11.10;99.90;;;;;;5045975;28;20160;-66
2023/09/24 02:03:59;;;;;;;1999.90;999.90;;;11.00;99.90;;;;;;5034299;28;20442;-67
2023/09/24 02:06:25;;;;;;;1999.90;999.90;;;11.00;99.90;;;;;;5033383;28;20418;-68
2023/09/24 02:08:51;;;;;;;1999.90;999.90;;;11.00;99.90;;;;;;5034092;28;20402;-67
2023/09/24 02:11:18;;;;;;;1999.90;999.90;;;11.00;99.90;;;;;;5033909;28;20774;-67
2023/09/24 02:13:43;;;;;;;1999.90;999.90;;;10.90;99.90;;;;;;5033897;28;20431;-67
2023/09/24 02:16:09;;;;;;;1999.90;999.90;;;10.80;99.90;;;;;;5033711;28;20395;-68
2023/09/24 02:18:36;;;;;;;1999.90;999.90;;;10.80;99.90;;;;;;5034169;28;20169;-67
2023/09/24 02:21:01;;;;;;;1999.90;999.90;;;10.70;99.90;;;;;;5034079;28;20523;-67
2023/09/24 02:23:27;;;;;;;1999.90;999.90;;;10.80;99.90;;;;;;5033746;28;20509;-68
2023/09/24 02:25:53;;;;;;;1999.90;999.90;;;10.80;99.90;;;;;;5033566;28;20176;-66
2023/09/24 02:28:18;;;;;;;1999.90;999.90;;;10.80;99.90;;;;;;5033758;28;20238;-66
2023/09/24 02:30:45;;;;;;;1999.90;999.90;;;10.60;99.90;;;;;;5033789;28;20172;-66
2023/09/24 02:33:11;;;;;;;1999.90;999.90;;;10.60;99.90;;;;;;5033518;28;20715;-68
2023/09/24 02:35:37;;;;;;;1999.90;999.90;;;10.80;99.90;;;;;;5033430;28;20505;-66
2023/09/24 02:38:04;;;;;;;1999.90;999.90;;;10.70;99.90;;;;;;5033680;28;20168;-67
2023/09/24 02:40:30;;;;;;;1999.90;999.90;;;10.60;99.90;;;;;;5033504;28;20628;-66
2023/09/24 02:43:01;;;;;;;1999.90;999.90;;;10.60;99.90;;;;;;5033344;28;20433;-67
2023/09/24 02:45:29;;;;;;;1999.90;999.90;;;10.50;99.90;;;;;;5033184;28;20175;-66
2023/09/24 02:47:55;;;;;;;1999.90;999.90;;;10.50;99.90;;;;;;5033412;28;20871;-66
2023/09/24 02:50:28;;;;;;;1999.90;999.90;;;10.40;99.90;;;;;;5033325;28;20449;-66
2023/09/24 02:52:56;;;;;;;1999.90;999.90;;;10.40;99.90;;;;;;5033258;28;20464;-67
2023/09/24 02:55:24;;;;;;;1999.90;999.90;;;10.30;99.90;;;;;;5032959;28;20421;-67
2023/09/24 02:57:52;;;;;;;1999.90;999.90;;;10.40;99.90;;;;;;5033166;28;20448;-68
2023/09/24 03:00:26;;;;;;;1999.90;999.90;;;10.30;99.90;;;;;;5033153;28;20407;-68
2023/09/24 03:02:53;;;;;;;1999.90;999.90;;;10.30;99.90;;;;;;5033171;28;20502;-68
2023/09/24 03:05:20;;;;;;;1999.90;999.90;;;10.30;99.90;;;;;;5032881;28;20414;-66
2023/09/24 03:07:50;;;;;;;1999.90;999.90;;;10.30;99.90;;;;;;5033323;28;20956;-67
2023/09/24 03:10:16;;;;;;;1999.90;999.90;;;10.30;99.90;;;;;;5032901;28;20402;-67
2023/09/24 03:12:42;;;;;;;1999.90;999.90;;;10.20;99.90;;;;;;5032658;28;20533;-66
2023/09/24 03:15:11;;;;;;;1999.90;999.90;;;10.20;99.90;;;;;;5032694;28;21153;-67
2023/09/24 03:17:39;;;;;;;1999.90;999.90;;;10.20;99.90;;;;;;5033854;28;20453;-69
2023/09/24 03:20:14;;;;;;;1999.90;999.90;;;10.30;99.90;;;;;;5046407;28;20405;-68
2023/09/24 03:22:42;;;;;;;1999.90;999.90;;;10.20;99.90;;;;;;5046481;28;20438;-65
2023/09/24 03:25:10;;;;;;;1999.90;999.90;;;10.10;99.90;;;;;;5046738;28;20475;-68
2023/09/24 03:27:38;;;;;;;1999.90;999.90;;;10.10;99.90;;;;;;5046902;28;20449;-66
2023/09/24 03:30:09;;;;;;;1999.90;999.90;;;10.10;99.90;;;;;;5046923;28;20412;-68
2023/09/24 03:32:36;;;;;;;1999.90;999.90;;;10.10;99.90;;;;;;5046449;28;20461;-68
2023/09/24 03:35:04;;;;;;;1999.90;999.90;;;10.40;99.90;;;;;;5045292;28;20402;-68
2023/09/24 03:37:29;;;;;;;1999.90;999.90;;;10.10;99.90;;;;;;5045707;28;20406;-66
2023/09/24 03:39:55;;;;;;;1999.90;999.90;;;10.40;99.90;;;;;;5046128;28;20416;-69
2023/09/24 03:42:20;;;;;;;1999.90;999.90;;;10.00;99.90;;;;;;5045452;28;20195;-67
2023/09/24 03:44:46;;;;;;;1999.90;999.90;;;10.00;99.90;;;;;;5045292;28;20574;-69
2023/09/24 03:47:13;;;;;;;1999.90;999.90;;;10.10;99.90;;;;;;5044968;28;20186;-68
2023/09/24 03:49:38;;;;;;;1999.90;999.90;;;10.00;99.90;;;;;;5045825;28;20195;-66
2023/09/24 03:52:04;;;;;;;1999.90;999.90;;;9.80;99.90;;;;;;5045238;28;20491;-69
2023/09/24 03:54:31;;;;;;;1999.90;999.90;;;10.00;99.90;;;;;;5045142;28;20675;-68
2023/09/24 03:56:56;;;;;;;1999.90;999.90;;;9.90;99.90;;;;;;5044526;28;20189;-68
2023/09/24 03:59:22;;;;;;;1999.90;999.90;;;9.80;99.90;;;;;;5046637;28;20414;-69
2023/09/24 04:01:47;;;;;;;1999.90;999.90;;;9.80;99.90;;;;;;5047102;28;20175;-68
2023/09/24 04:04:13;;;;;;;1999.90;999.90;;;8.90;99.90;;;;;;5046826;28;20202;-67
2023/09/24 04:06:40;;;;;;;1999.90;999.90;;;9.90;99.90;;;;;;5046324;28;20180;-67
2023/09/24 04:09:06;;;;;;;1999.90;999.90;;;;;;;;;;5047440;28;20172;-67
2023/09/24 04:11:32;;;;;;;1999.90;999.90;;;9.80;99.90;;;;;;5045848;28;20512;-68
2023/09/24 04:13:58;;;;;;;1999.90;999.90;;;9.80;99.90;;;;;;5046317;28;20434;-67
2023/09/24 04:16:24;;;;;;;1999.90;999.90;;;9.90;99.90;;;;;;5046283;28;20411;-68
2023/09/24 04:18:50;;;;;;;1999.90;999.90;;;10.40;99.90;;;;;;5031604;28;20428;-68
2023/09/24 04:21:17;;;;;;;1999.90;999.90;;;10.00;99.90;;;;;;5037512;28;20783;-68
2023/09/24 04:23:44;;;;;;;1999.90;999.90;;;9.80;99.90;;;;;;5046933;28;20420;-66
2023/09/24 04:26:22;;;;;;;1999.90;999.90;;;9.70;99.90;;;;;;5046312;28;20403;-66
2023/09/24 04:28:54;;;;;;;1999.90;999.90;;;9.80;99.90;;;;;;5046450;28;20442;-68
2023/09/24 04:31:19;;;;;;;1999.90;999.90;;;9.80;99.90;;;;;;5050540;28;20406;-66
2023/09/24 04:33:46;;;;;;;1999.90;999.90;;;9.70;99.90;;;;;;5037932;28;20446;-68
2023/09/24 04:36:12;;;;;;;1999.90;999.90;;;9.60;99.90;;;;;;5038675;28;20218;-68
2023/09/24 04:38:37;;;;;;;1999.90;999.90;;;9.60;99.90;;;;;;5048529;28;20411;-67
2023/09/24 04:41:03;;;;;;;1999.90;999.90;;;10.20;99.90;;;;;;5045316;28;20217;-69
2023/09/24 04:43:29;;;;;;;1999.90;999.90;;;9.60;99.90;;;;;;5039642;28;20203;-69
2023/09/24 04:45:55;;;;;;;1999.90;999.90;;;9.50;99.90;;;;;;5039577;28;21129;-68
2023/09/24 04:48:21;;;;;;;1999.90;999.90;;;10.40;99.90;;;;;;5043312;28;20425;-69
2023/09/24 04:50:46;;;;;;;1999.90;999.90;;;9.80;99.90;;;;;;5040443;28;20186;-68
2023/09/24 04:53:12;;;;;;;1999.90;999.90;;;10.30;99.90;;;;;;5048188;28;20617;-67
2023/09/24 04:55:37;;;;;;;1999.90;999.90;;;9.60;99.90;;;;;;5048944;28;20209;-67
2023/09/24 04:58:03;;;;;;;1999.90;999.90;;;9.60;99.90;;;;;;5047937;28;20460;-68
2023/09/24 05:00:30;;;;;;;1999.90;999.90;;;;;;;;;;5040558;28;20224;-67
2023/09/24 05:02:56;;;;;;;1999.90;999.90;;;9.50;99.90;;;;;;5041660;28;20235;-67
2023/09/24 05:05:22;;;;;;;1999.90;999.90;;;10.20;99.90;;;;;;5051286;28;20413;-68
2023/09/24 05:07:50;;;;;;;1999.90;999.90;;;9.40;99.90;;;;;;5051294;28;20176;-66
2023/09/24 05:10:15;;;;;;;1999.90;999.90;;;9.40;99.90;;;;;;5050488;28;20516;-68
2023/09/24 05:12:42;;;;;;;1999.90;999.90;;;9.40;99.90;;;;;;5050377;28;20466;-69
2023/09/24 05:15:07;;;;;;;1999.90;999.90;;;9.40;99.90;;;;;;5050522;28;20168;-68
2023/09/24 05:17:33;;;;;;;1999.90;999.90;;;9.40;99.90;;;;;;5050811;28;20449;-68
2023/09/24 05:19:59;;;;;;;1999.90;999.90;;;10.20;99.90;;;;;;5040695;28;20421;-68
2023/09/24 05:22:27;;;;;;;1999.90;999.90;;;9.40;99.90;;;;;;5041043;28;20199;-68
2023/09/24 05:24:53;;;;;;;1999.90;999.90;;;10.20;99.90;;;;;;5049594;28;20179;-67
2023/09/24 05:27:19;;;;;;;1999.90;999.90;;;9.40;99.90;;;;;;5035716;28;20429;-67
2023/09/24 05:29:48;;;;;;;1999.90;999.90;;;9.80;99.90;;;;;;5034895;28;20179;-67
2023/09/24 05:32:14;;;;;;;1999.90;999.90;;;9.30;99.90;;;;;;5034938;28;20559;-66
2023/09/24 05:34:39;;;;;;;1999.90;999.90;;;9.30;99.90;;;;;;5019692;28;20417;-67
2023/09/24 05:37:06;;;;;;;1999.90;999.90;;;9.30;99.90;;;;;;5015051;28;20407;-66
2023/09/24 05:39:33;;;;;;;1999.90;999.90;;;9.30;99.90;;;;;;5014502;28;20180;-67
2023/09/24 05:41:58;;;;;;;1999.90;999.90;;;9.50;99.90;;;;;;5014145;28;21023;-67
2023/09/24 05:44:24;;;;;;;1999.90;999.90;;;9.30;99.90;;;;;;5014928;28;20490;-66
2023/09/24 05:46:50;;;;;;;1999.90;999.90;;;9.40;99.90;;;;;;5014998;28;20222;-66
2023/09/24 05:49:16;;;;;;;1999.90;999.90;;;9.40;99.90;;;;;;5014782;28;20844;-66
2023/09/24 05:51:42;;;;;;;1999.90;999.90;;;9.40;99.90;;;;;;5014718;28;20487;-66
2023/09/24 05:54:10;;;;;;;1999.90;999.90;;;9.50;99.90;;;;;;5014602;28;20616;-67
2023/09/24 05:56:36;;;;;;;1999.90;999.90;;;9.50;99.90;;;;;;5014418;28;20439;-67
2023/09/24 05:59:02;;;;;;;1999.90;999.90;;;9.50;99.90;;;;;;5014636;28;20788;-66
2023/09/24 06:01:28;;;;;;;1999.90;999.90;;;9.60;99.90;;;;;;5014750;28;20403;-66
2023/09/24 06:03:54;;;;;;;1999.90;999.90;;;9.70;99.90;;;;;;5014381;28;20551;-67
2023/09/24 06:06:19;;;;;;;1999.90;999.90;;;9.70;99.90;;;;;;5014202;28;20264;-66
2023/09/24 06:08:45;;;;;;;1999.90;999.90;;;9.70;99.90;;;;;;5014392;28;20169;-68
2023/09/24 06:11:10;;;;;;;1999.90;999.90;;;9.70;99.90;;;;;;5014366;28;20256;-66
2023/09/24 06:13:37;;;;;;;1999.90;999.90;;;9.80;99.90;;;;;;5014186;28;20228;-66
2023/09/24 06:16:03;;;;;;;1999.90;999.90;;;9.80;99.90;;;;;;5014106;28;20177;-67
2023/09/24 06:18:29;;;;;;;1999.90;999.90;;;9.90;99.90;;;;;;5014402;28;20434;-66
2023/09/24 06:20:54;;;;;;;1999.90;999.90;;;10.00;99.90;;;;;;5015709;28;20176;-66
2023/09/24 06:23:20;;;;;;;1999.90;999.90;;;10.00;99.90;;;;;;5025553;28;20206;-67
2023/09/24 06:25:53;;;;;;;1999.90;999.90;;;10.10;99.90;;;;;;5033628;28;20186;-66
2023/09/24 06:28:19;;;;;;;1999.90;999.90;;;10.20;99.90;;;;;;5033825;28;20311;-66
2023/09/24 06:30:45;;;;;;;1999.90;999.90;;;10.30;99.90;;;;;;5023986;28;20418;-66
2023/09/24 06:33:10;;;;;;;1999.90;999.90;;;10.40;99.90;;;;;;5027415;28;20203;-66
2023/09/24 06:35:37;;;;;;;1999.90;999.90;;;10.50;99.90;;;;;;5022180;28;20342;-67
2023/09/24 06:38:03;;;;;;;1999.90;999.90;;;10.40;99.90;;;;;;5025285;28;20168;-67
2023/09/24 06:40:29;;;;;;;1999.90;999.90;;;10.50;99.90;;;;;;5033597;28;20430;-66
2023/09/24 06:42:55;;;;;;;1999.90;999.90;;;10.70;99.90;;;;;;5027464;28;20207;-66
2023/09/24 06:45:21;;;;;;;1999.90;999.90;;;10.60;99.90;;;;;;5025203;28;20433;-66
2023/09/24 06:47:47;;;;;;;1999.90;999.90;;;10.70;99.90;;;;;;5033961;28;20233;-66
2023/09/24 06:50:12;;;;;;;1999.90;999.90;;;10.80;99.90;;;;;;5031152;28;20427;-67
2023/09/24 06:52:39;;;;;;;1999.90;999.90;;;10.80;99.90;;;;;;5022613;28;20205;-67
2023/09/24 06:55:08;;;;;;;1999.90;999.90;;;10.80;99.90;;;;;;5033473;28;20171;-66
2023/09/24 06:57:35;;;;;;;1999.90;999.90;;;10.90;99.90;;;;;;5033402;28;20439;-66
2023/09/24 07:00:04;;;;;;;1999.90;999.90;;;11.10;99.90;;;;;;5033652;28;20486;-66
2023/09/24 07:02:30;;;;;;;1999.90;999.90;;;11.10;99.90;;;;;;5033457;28;20466;-67
2023/09/24 07:04:55;;;;;;;1999.90;999.90;;;11.20;99.90;;;;;;5033274;28;20833;-66
2023/09/24 07:07:21;;;;;;;1999.90;999.90;;;11.30;99.90;;;;;;5033349;28;20179;-68
2023/09/24 07:09:48;;;;;;;1999.90;999.90;;;11.40;99.90;;;;;;5032997;28;20176;-67
2023/09/24 07:12:14;;;;;;;1999.90;999.90;;;11.40;99.90;;;;;;5029295;28;20217;-66
2023/09/24 07:14:40;;;;;;;1999.90;999.90;;;11.70;99.90;;;;;;5021883;28;20451;-67
2023/09/24 07:17:06;;;;;;;1999.90;999.90;;;11.60;99.90;;;;;;5032933;28;20432;-67
2023/09/24 07:19:32;;;;;;;1999.90;999.90;;;11.80;99.90;;;;;;5032759;28;20414;-66
2023/09/24 07:21:58;;;;;;;1999.90;999.90;;;11.70;99.90;;;;;;5032898;28;20494;-66
2023/09/24 07:24:24;;;;;;;1999.90;999.90;;;11.80;99.90;;;;;;5032534;28;20577;-69
2023/09/24 07:26:50;;;;;;;1999.90;999.90;;;11.90;99.90;;;;;;5032909;28;20242;-66
2023/09/24 07:29:16;;;;;;;1999.90;999.90;;;12.00;99.90;;;;;;5032731;28;20754;-66
2023/09/24 07:31:41;;;;;;;1999.90;999.90;;;12.00;99.90;;;;;;5032669;28;20460;-66
2023/09/24 07:34:09;;;;;;;1999.90;999.90;;;12.10;99.90;;;;;;5032497;28;20193;-66
2023/09/24 07:36:35;;;;;;;1999.90;999.90;;;12.20;99.90;;;;;;5032365;28;20187;-68
2023/09/24 07:39:00;;;;;;;1999.90;999.90;;;12.30;99.90;;;;;;5032528;28;20408;-66
2023/09/24 07:41:26;;;;;;;1999.90;999.90;;;12.30;99.90;;;;;;5032948;28;20596;-67
2023/09/24 07:43:53;;;;;;;1999.90;999.90;;;12.40;99.90;;;;;;5033122;28;20193;-66
2023/09/24 07:46:19;;;;;;;1999.90;999.90;;;12.40;99.90;;;;;;5027995;28;20840;-66
2023/09/24 07:48:49;;;;;;;1999.90;999.90;;;12.60;99.90;;;;;;5022841;28;20412;-67
2023/09/24 07:51:16;;;;;;;1999.90;999.90;;;12.60;99.90;;;;;;5032895;28;20414;-67
2023/09/24 07:53:43;;;;;;;1999.90;999.90;;;12.70;99.90;;;;;;5022864;28;20549;-66
2023/09/24 07:56:11;;;;;;;1999.90;999.90;;;12.80;99.90;;;;;;5014752;28;21001;-66
2023/09/24 07:58:38;;;;;;;1999.90;999.90;;;12.80;99.90;;;;;;5024567;28;20417;-66
2023/09/24 08:01:11;;;;;;;1999.90;999.90;;;12.90;99.90;;;;;;5032810;28;20476;-66
2023/09/24 08:03:38;;;;;;;1999.90;999.90;;;13.00;99.90;;;;;;5025083;28;20431;-66
2023/09/24 08:06:05;;;;;;;1999.90;999.90;;;13.10;99.90;;;;;;5020641;28;20422;-67
2023/09/24 08:08:32;;;;;;;1999.90;999.90;;;13.20;99.90;;;;;;5028928;28;20549;-66
2023/09/24 08:10:58;;;;;;;1999.90;999.90;;;13.30;99.90;;;;;;5025163;28;21030;-68
2023/09/24 08:13:24;;;;;;;1999.90;999.90;;;13.40;99.90;;;;;;5027256;28;20464;-67
2023/09/24 08:15:50;;;;;;;1999.90;999.90;;;13.40;99.90;;;;;;5032265;28;20899;-68
2023/09/24 08:18:19;;;;;;;1999.90;999.90;;;13.50;99.90;;;;;;5032449;28;20471;-67
2023/09/24 08:20:45;;;;;;;1999.90;999.90;;;13.50;99.90;;;;;;5032397;28;20409;-66
2023/09/24 08:23:11;;;;;;;1999.90;999.90;;;13.60;99.90;;;;;;5021220;28;20435;-66
2023/09/24 08:25:39;;;;;;;1999.90;999.90;;;13.70;99.90;;;;;;5019415;28;20441;-66
2023/09/24 08:28:05;;;;;;;1999.90;999.90;;;13.80;99.90;;;;;;5008206;28;20507;-66
2023/09/24 08:30:31;;;;;;;1999.90;999.90;;;14.00;99.90;;;;;;5005634;28;20449;-66
2023/09/24 08:32:57;;;;;;;1999.90;999.90;;;14.10;99.90;;;;;;5000555;28;20501;-67
2023/09/24 08:35:23;;;;;;;1999.90;999.90;;;14.20;99.90;;;;;;5004921;28;20444;-66
2023/09/24 08:37:50;;;;;;;1999.90;999.90;;;14.20;99.90;;;;;;5018863;28;20490;-67
2023/09/24 08:40:16;;;;;;;1999.90;999.90;;;14.30;99.90;;;;;;5023217;28;20910;-66
2023/09/24 08:42:48;;;;;;;1999.90;999.90;;;14.50;99.90;;;;;;5017474;28;20441;-67
2023/09/24 08:45:15;;;;;;;1999.90;999.90;;;14.60;99.90;;;;;;5023723;28;20403;-66
2023/09/24 08:47:44;;;;;;;1999.90;999.90;;;14.70;99.90;;;;;;5031989;28;20407;-67
2023/09/24 08:50:10;;;;;;;1999.90;999.90;;;14.80;99.90;;;;;;5031899;28;20455;-67
2023/09/24 08:52:43;;;;;;;1999.90;999.90;;;14.80;99.90;;;;;;5029806;28;20980;-67
2023/09/24 08:55:10;;;;;;;1999.90;999.90;;;14.90;99.90;;;;;;5020498;28;20172;-68
2023/09/24 08:57:37;;;;;;;1999.90;999.90;;;15.00;99.90;;;;;;5040699;28;20413;-67
2023/09/24 09:00:06;;;;;;;1999.90;999.90;;;15.00;99.90;;;;;;5041578;28;20416;-68
2023/09/24 09:02:32;;;;;;;1999.90;999.90;;;15.10;99.90;;;;;;5041379;28;20423;-68
2023/09/24 09:04:58;;;;;;;1999.90;999.90;;;15.30;99.90;;;;;;5040914;28;20430;-69
2023/09/24 09:07:24;;;;;;;1999.90;999.90;;;15.30;99.90;;;;;;5041715;28;20402;-69
2023/09/24 09:10:03;;;;;;;1999.90;999.90;;;15.40;99.90;;;;;;5041705;28;20174;-69
2023/09/24 09:12:29;;;;;;;1999.90;999.90;;;15.60;99.90;;;;;;5035869;28;20254;-67
2023/09/24 09:14:57;;;;;;;1999.90;999.90;;;15.60;99.90;;;;;;5032485;28;20418;-68
2023/09/24 09:17:24;;;;;;;1999.90;999.90;;;15.70;99.90;;;;;;5035409;28;20398;-67
2023/09/24 09:19:56;;;;;;;1999.90;999.90;;;15.90;99.90;;;;;;5033573;28;20429;-67
2023/09/24 09:22:27;;;;;;;1999.90;999.90;;;16.00;99.90;;;;;;5026803;28;20514;-66
2023/09/24 09:25:07;;;;;;;1999.90;999.90;;;16.10;99.90;;;;;;5022864;28;21268;-67
2023/09/24 09:27:32;;;;;;;1999.90;999.90;;;16.20;99.90;;;;;;5010724;28;20797;-68
2023/09/24 09:30:17;;;;;;;1999.90;999.90;;;16.30;99.90;;;;;;5007833;28;20444;-67
2023/09/24 09:32:44;;;;;;;1999.90;999.90;;;16.40;99.90;;;;;;5016346;28;20201;-69
2023/09/24 09:35:10;;;;;;;1999.90;999.90;;;16.50;99.90;;;;;;5021288;28;20416;-67
2023/09/24 09:37:39;;;;;;;1999.90;999.90;;;16.50;99.90;;;;;;5028262;28;20783;-69
2023/09/24 09:40:09;;;;;;;1999.90;999.90;;;16.70;99.90;;;;;;5014458;28;20841;-67
2023/09/24 09:42:37;;;;;;;1999.90;999.90;;;16.80;99.90;;;;;;5023625;28;21166;-67
2023/09/24 09:45:07;;;;;;;1999.90;999.90;;;17.00;99.90;;;;;;5020726;28;20421;-67
2023/09/24 09:47:37;;;;;;;1999.90;999.90;;;17.00;99.90;;;;;;5029966;28;20444;-71
2023/09/24 09:50:04;;;;;;;1999.90;999.90;;;17.20;99.90;;;;;;5028748;28;20486;-69
2023/09/24 09:52:39;;;;;;;1999.90;999.90;;;17.30;99.90;;;;;;5008282;28;20548;-67
2023/09/24 09:55:06;;;;;;;1999.90;999.90;;;17.40;99.90;;;;;;5006076;28;20526;-68
2023/09/24 09:57:33;;;;;;;1999.90;999.90;;;17.50;99.90;;;;;;5018104;28;20450;-68
2023/09/24 10:00:00;;;;;;;1999.90;999.90;;;17.70;99.90;;;;;;5021090;28;20435;-66
2023/09/24 10:02:29;;;;;;;1999.90;999.90;;;17.90;99.90;;;;;;5029592;28;20427;-65
2023/09/24 10:04:57;;;;;;;1999.90;999.90;;;18.00;99.90;;;;;;5028991;28;20468;-67
2023/09/24 10:07:23;;;;;;;1999.90;999.90;;;18.10;99.90;;;;;;5018897;28;20426;-68
2023/09/24 10:09:50;;;;;;;1999.90;999.90;;;18.20;99.90;;;;;;5027543;28;20505;-66
2023/09/24 10:12:36;;;;;;;1999.90;999.90;;;18.30;99.90;;;;;;5015702;28;21102;-68
2023/09/24 10:15:34;;;;;;;1999.90;999.90;;;18.40;99.90;;;;;;5015237;28;20568;-70
2023/09/24 10:18:09;;;;;;;1999.90;999.90;;;18.50;99.90;;;;;;4997916;28;20427;-67
2023/09/24 10:20:49;;;;;;;1999.90;999.90;;;18.60;99.90;;;;;;5024664;28;20457;-67
2023/09/24 10:23:32;;;;;;;1999.90;999.90;;;18.70;99.90;;;;;;5029626;28;20442;-65
2023/09/24 10:26:01;;;;;;;1999.90;999.90;;;18.80;99.90;;;;;;5029206;28;20418;-67
2023/09/24 10:28:47;;;;;;;1999.90;999.90;;;18.90;99.90;;;;;;5029197;28;20422;-67
2023/09/24 10:31:13;;;;;;;1999.90;999.90;;;19.00;99.90;;;;;;5029579;28;20490;-67
2023/09/24 10:34:02;;;;;;;1999.90;999.90;;;19.10;99.90;;;;;;5028817;28;20542;-67
2023/09/24 10:36:34;;;;;;;1999.90;999.90;;;19.20;99.90;;;;;;5029826;28;20406;-66
2023/09/24 10:39:07;;;;;;;1999.90;999.90;;;19.30;99.90;;;;;;5029850;28;21013;-68
2023/09/24 10:41:34;;;;;;;1999.90;999.90;;;19.40;99.90;;;;;;5028949;28;20432;-66
2023/09/24 10:44:22;;;;;;;1999.90;999.90;;;19.50;99.90;;;;;;5028986;28;20466;-66
2023/09/24 10:46:47;;;;;;;1999.90;999.90;;;19.60;99.90;;;;;;5029246;28;20422;-66
2023/09/24 10:49:21;;;;;;;1999.90;999.90;;;19.80;99.90;;;;;;5028756;28;20414;-66
2023/09/24 10:51:56;;;;;;;1999.90;999.90;;;19.80;99.90;;;;;;5028401;28;20661;-66
2023/09/24 10:54:22;;;;;;;1999.90;999.90;;;19.60;99.90;;;;;;5028806;28;20408;-68
2023/09/24 10:56:48;;;;;;;1999.90;999.90;;;19.70;99.90;;;;;;5029294;28;20496;-66
2023/09/24 10:59:16;;;;;;;1999.90;999.90;;;19.90;99.90;;;;;;5028778;28;20198;-66
2023/09/24 11:01:42;;;;;;;1999.90;999.90;;;20.00;99.90;;;;;;5028447;28;20830;-66
2023/09/24 11:04:09;;;;;;;1999.90;999.90;;;20.20;99.90;;;;;;5029129;28;20444;-66
2023/09/24 11:06:35;;;;;;;1999.90;999.90;;;20.30;99.90;;;;;;5028579;28;20415;-67
2023/09/24 11:09:18;;;;;;;1999.90;999.90;;;20.30;99.90;;;;;;5028672;28;20433;-67
2023/09/24 11:11:44;;;;;;;1999.90;999.90;;;20.40;99.90;;;;;;5027695;28;20896;-67
2023/09/24 11:14:20;;;;;;;1999.90;999.90;;;20.50;99.90;;;;;;5028265;28;20809;-70
2023/09/24 11:16:46;;;;;;;1999.90;999.90;;;20.70;99.90;;;;;;5028378;28;20794;-69
2023/09/24 11:19:11;;;;;;;1999.90;999.90;;;20.80;99.90;;;;;;5028813;28;20433;-67
2023/09/24 11:21:38;;;;;;;1999.90;999.90;;;20.90;98.70;;;;;;5028037;28;20191;-66
2023/09/24 11:24:20;;;;;;;1999.90;999.90;;;21.00;97.50;;;;;;5028243;28;20572;-68
2023/09/24 11:26:45;;;;;;;1999.90;999.90;;;21.20;99.90;;;;;;5027834;28;20414;-67
2023/09/24 11:29:11;;;;;;;1999.90;999.90;;;21.30;97.00;;;;;;5028896;28;20458;-70
2023/09/24 11:31:43;;;;;;;1999.90;999.90;;;21.50;97.50;;;;;;5027886;28;20216;-68
2023/09/24 11:34:09;;;;;;;1999.90;999.90;;;21.80;90.80;;;;;;5027628;28;20595;-67
2023/09/24 11:36:35;;;;;;;1999.90;999.90;;;22.40;81.10;;;;;;5027808;28;20418;-67
2023/09/24 11:39:00;;;;;;;1999.90;999.90;;;23.20;79.00;;;;;;5028141;28;20176;-66
2023/09/24 11:41:26;;;;;;;1999.90;999.90;;;24.10;60.50;;;;;;5027366;28;20168;-66
2023/09/24 11:43:56;;;;;;;1999.90;999.90;;;24.80;46.80;;;;;;5027938;28;20253;-71
2023/09/24 11:46:25;;;;;;;1999.90;999.90;;;25.60;37.10;;;;;;5028605;28;20549;-67
2023/09/24 11:48:52;;;;;;;1999.90;999.90;;;26.00;22.10;;;;;;5027921;28;20779;-66
2023/09/24 11:51:21;;;;;;;1999.90;999.90;;;26.40;15.70;;;;;;5027267;28;20397;-67
2023/09/24 11:53:46;;;;;;;1999.90;999.90;;;26.60;10.60;;;;;;5027357;28;20486;-69
2023/09/24 11:56:12;;;;;;;1999.90;999.90;;;26.80;5.70;;;;;;5028041;28;20401;-67
2023/09/24 11:58:38;;;;;;;1999.90;999.90;;;27.10;6.10;;;;;;5027777;28;20180;-68
2023/09/24 12:01:04;;;;;;;1999.90;999.90;;;27.50;3.70;;;;;;5027604;28;20180;-68
2023/09/24 12:03:30;;;;;;;1999.90;999.90;;;27.90;2.10;;;;;;5027854;28;20288;-70